Pretty Hana — DSQJ5 — position and weather

sailwx.info

Track history (hours):
 
Tides and Currents Weather Stations Pressure Air Temp Water Temp Dewpoint Dewpoint Depression Visibility Wind Speed Wind Dir Waves Ship Positions

Pretty Hana

Last reported at 2017-Oct-21 03:38 UTC. Time now 2017-Oct-22 17:43 UTC.
Position N 35°31' E 139°56'.

Length 64 m; draft 3.7 m.

Type: Ship (hazmat cat B). MMSI: 441600000.

Date/timePositionNaut miles runAvg speedWind from/ knotsBaromVisibWave heightAir tempDewpointWater temp
2017-Oct-21 03:38N 35°31' E 139°56'2 9.3
2017-Oct-21 03:27N 35°30' E 139°54'4 9.5
2017-Oct-21 03:00N 35°28' E 139°50'4 8.7
2017-Oct-21 02:30N 35°25' E 139°47'4 7.4
2017-Oct-21 02:01N 35°21' E 139°45'4 7.9
2017-Oct-21 01:31N 35°17' E 139°45'4 7.6
2017-Oct-21 01:00N 35°14' E 139°47'4 8.3
2017-Oct-21 00:31N 35°09' E 139°46'4 8.7
2017-Oct-21 00:00N 35°06' E 139°43'4 8.5
2017-Oct-20 23:31N 35°02' E 139°40'4 7.9
2017-Oct-20 23:00N 34°60' E 139°37'5 8.0
2017-Oct-20 22:24N 34°57' E 139°32'  
2017-Oct-15 02:12N 34°36' E 134°54'3 8.4
2017-Oct-15 01:49N 34°37' E 134°57'4 6.9
2017-Oct-15 01:13N 34°37' E 135°02'2 7.3
2017-Oct-15 00:59N 34°36' E 135°04'5 9.7
2017-Oct-15 00:30N 34°37' E 135°10'510.4
2017-Oct-15 00:00N 34°38' E 135°16'3 5.5
2017-Oct-14 23:31N 34°40' E 135°17'0 0.0
2017-Oct-14 22:55N 34°40' E 135°17'0 0.1
2017-Oct-14 22:30N 34°40' E 135°18'0 0.1
2017-Oct-14 21:55N 34°40' E 135°17'0 0.0
2017-Oct-14 21:30N 34°40' E 135°17'0 0.0
2017-Oct-14 20:54N 34°40' E 135°17'0 0.1
2017-Oct-14 20:30N 34°40' E 135°18'0 0.0
2017-Oct-14 20:00N 34°40' E 135°18'0 0.0
2017-Oct-14 19:30N 34°40' E 135°18'0 0.0
2017-Oct-14 18:54N 34°40' E 135°18'0 0.0
2017-Oct-14 18:30N 34°40' E 135°18'0 0.1
2017-Oct-14 17:55N 34°40' E 135°17'0 0.0
2017-Oct-14 17:31N 34°40' E 135°17'0 0.0
2017-Oct-14 17:00N 34°40' E 135°17'0 0.0
2017-Oct-14 16:25N 34°40' E 135°17'0 0.0
2017-Oct-14 15:55N 34°40' E 135°17'0 0.0
2017-Oct-14 15:31N 34°40' E 135°17'0 0.0
2017-Oct-14 14:54N 34°40' E 135°17'0 0.0
2017-Oct-14 14:30N 34°40' E 135°17'0 0.0
2017-Oct-14 13:55N 34°40' E 135°17'0 0.0
2017-Oct-14 13:31N 34°40' E 135°17'0 0.0
2017-Oct-14 13:01N 34°40' E 135°17'0 0.0
2017-Oct-14 12:24N 34°40' E 135°17'0 0.0
2017-Oct-14 12:01N 34°40' E 135°17'0 0.0
2017-Oct-14 11:31N 34°40' E 135°17'0 0.0
2017-Oct-14 10:55N 34°40' E 135°17'0 0.1
2017-Oct-14 10:31N 34°40' E 135°18'0 0.0
2017-Oct-14 10:00N 34°40' E 135°18'0 0.0
2017-Oct-14 09:31N 34°40' E 135°18'1 1.5
2017-Oct-14 09:00N 34°39' E 135°17'5 9.4
2017-Oct-14 08:30N 34°37' E 135°13'510.5
2017-Oct-14 08:00N 34°35' E 135°07'4 8.5
2017-Oct-14 07:30N 34°37' E 135°02'  
Track history (hours):
 
Tides and Currents Weather Stations Pressure Air Temp Water Temp Dewpoint Dewpoint Depression Visibility Wind Speed Wind Dir Waves Ship Positions

Pretty Hana

Last reported at 2017-Oct-21 03:38 UTC. Time now 2017-Oct-22 17:43 UTC.
Position N 35°31' E 139°56'.

Length 64 m; draft 3.7 m.

Type: Ship (hazmat cat B). MMSI: 441600000.

Date/timePositionNaut miles runAvg speedWind from/ knotsBaromVisibWave heightAir tempDewpointWater temp
2017-Oct-21 03:38N 35°31' E 139°56'2 9.3
2017-Oct-21 03:27N 35°30' E 139°54'4 9.5
2017-Oct-21 03:00N 35°28' E 139°50'4 8.7
2017-Oct-21 02:30N 35°25' E 139°47'4 7.4
2017-Oct-21 02:01N 35°21' E 139°45'4 7.9
2017-Oct-21 01:31N 35°17' E 139°45'4 7.6
2017-Oct-21 01:00N 35°14' E 139°47'4 8.3
2017-Oct-21 00:31N 35°09' E 139°46'4 8.7
2017-Oct-21 00:00N 35°06' E 139°43'4 8.5
2017-Oct-20 23:31N 35°02' E 139°40'4 7.9
2017-Oct-20 23:00N 34°60' E 139°37'5 8.0
2017-Oct-20 22:24N 34°57' E 139°32'  
2017-Oct-15 02:12N 34°36' E 134°54'3 8.4
2017-Oct-15 01:49N 34°37' E 134°57'4 6.9
2017-Oct-15 01:13N 34°37' E 135°02'2 7.3
2017-Oct-15 00:59N 34°36' E 135°04'5 9.7
2017-Oct-15 00:30N 34°37' E 135°10'510.4
2017-Oct-15 00:00N 34°38' E 135°16'3 5.5
2017-Oct-14 23:31N 34°40' E 135°17'0 0.0
2017-Oct-14 22:55N 34°40' E 135°17'0 0.1
2017-Oct-14 22:30N 34°40' E 135°18'0 0.1
2017-Oct-14 21:55N 34°40' E 135°17'0 0.0
2017-Oct-14 21:30N 34°40' E 135°17'0 0.0
2017-Oct-14 20:54N 34°40' E 135°17'0 0.1
2017-Oct-14 20:30N 34°40' E 135°18'0 0.0
2017-Oct-14 20:00N 34°40' E 135°18'0 0.0
2017-Oct-14 19:30N 34°40' E 135°18'0 0.0
2017-Oct-14 18:54N 34°40' E 135°18'0 0.0
2017-Oct-14 18:30N 34°40' E 135°18'0 0.1
2017-Oct-14 17:55N 34°40' E 135°17'0 0.0
2017-Oct-14 17:31N 34°40' E 135°17'0 0.0
2017-Oct-14 17:00N 34°40' E 135°17'0 0.0
2017-Oct-14 16:25N 34°40' E 135°17'0 0.0
2017-Oct-14 15:55N 34°40' E 135°17'0 0.0
2017-Oct-14 15:31N 34°40' E 135°17'0 0.0
2017-Oct-14 14:54N 34°40' E 135°17'0 0.0
2017-Oct-14 14:30N 34°40' E 135°17'0 0.0
2017-Oct-14 13:55N 34°40' E 135°17'0 0.0
2017-Oct-14 13:31N 34°40' E 135°17'0 0.0
2017-Oct-14 13:01N 34°40' E 135°17'0 0.0
2017-Oct-14 12:24N 34°40' E 135°17'0 0.0
2017-Oct-14 12:01N 34°40' E 135°17'0 0.0
2017-Oct-14 11:31N 34°40' E 135°17'0 0.0
2017-Oct-14 10:55N 34°40' E 135°17'0 0.1
2017-Oct-14 10:31N 34°40' E 135°18'0 0.0
2017-Oct-14 10:00N 34°40' E 135°18'0 0.0
2017-Oct-14 09:31N 34°40' E 135°18'1 1.5
2017-Oct-14 09:00N 34°39' E 135°17'5 9.4
2017-Oct-14 08:30N 34°37' E 135°13'510.5
2017-Oct-14 08:00N 34°35' E 135°07'4 8.5
2017-Oct-14 07:30N 34°37' E 135°02'  

Dump ship's entire track history